createdAt,value
2023-04-15T00:00:34.778Z,10.15
2023-04-15T00:01:38.271Z,10.15
2023-04-15T00:02:41.014Z,10.82
2023-04-15T00:03:43.777Z,9.93
2023-04-15T00:04:47.150Z,10.00
2023-04-15T00:05:49.685Z,10.93
2023-04-15T00:06:55.544Z,12.73
2023-04-15T00:07:59.130Z,11.35
2023-04-15T00:09:01.588Z,10.82
2023-04-15T00:10:05.611Z,11.15
2023-04-15T00:11:08.361Z,12.68
2023-04-15T00:12:12.072Z,12.02
2023-04-15T00:13:15.538Z,12.15
2023-04-15T00:14:17.848Z,12.38
2023-04-15T00:15:20.947Z,12.63
2023-04-15T00:16:23.506Z,12.65
2023-04-15T00:17:26.222Z,12.90
2023-04-15T00:18:29.958Z,13.80
2023-04-15T00:19:33.495Z,13.85
2023-04-15T00:20:36.151Z,12.90
2023-04-15T00:21:41.543Z,14.25
2023-04-15T00:22:43.751Z,14.50
2023-04-15T00:23:49.924Z,13.73
2023-04-15T00:24:53.550Z,14.57
2023-04-15T00:25:57.556Z,12.80
2023-04-15T00:27:00.490Z,13.02
2023-04-15T00:28:02.870Z,13.85
2023-04-15T00:29:05.388Z,13.73
2023-04-15T00:30:08.490Z,13.98
2023-04-15T00:31:11.164Z,13.73
2023-04-15T00:32:13.710Z,13.43
2023-04-15T00:33:19.566Z,13.60
2023-04-15T00:34:22.888Z,12.88
2023-04-15T00:35:25.667Z,13.38
2023-04-15T00:36:28.107Z,12.77
2023-04-15T00:37:30.689Z,13.07
2023-04-15T00:38:33.570Z,13.80
2023-04-15T00:39:36.185Z,13.40
2023-04-15T00:40:39.050Z,13.48
2023-04-15T00:41:41.708Z,11.88
2023-04-15T00:42:45.787Z,11.85
2023-04-15T00:43:49.092Z,12.43
2023-04-15T00:44:51.839Z,11.65
2023-04-15T00:45:54.603Z,12.73
2023-04-15T00:46:58.820Z,11.50
2023-04-15T00:48:01.284Z,11.23
2023-04-15T00:49:05.519Z,12.18
2023-04-15T00:50:09.713Z,11.90
2023-04-15T00:51:12.191Z,11.95
2023-04-15T00:52:14.578Z,11.80
2023-04-15T00:53:20.647Z,12.50
2023-04-15T00:54:23.501Z,13.50
2023-04-15T00:55:25.936Z,12.15
2023-04-15T00:56:29.465Z,14.20
2023-04-15T00:57:32.472Z,14.40
2023-04-15T00:58:35.079Z,14.13
2023-04-15T00:59:37.806Z,13.50
2023-04-15T01:00:43.373Z,13.43
2023-04-15T01:01:46.538Z,12.98
2023-04-15T01:02:49.487Z,13.50
2023-04-15T01:03:52.329Z,13.27
2023-04-15T01:04:54.872Z,13.00
2023-04-15T01:06:01.568Z,13.35
2023-04-15T01:07:07.120Z,12.60
2023-04-15T01:08:10.068Z,12.40
2023-04-15T01:09:13.228Z,13.85
2023-04-15T01:10:15.692Z,13.48
2023-04-15T01:11:18.796Z,13.50
2023-04-15T01:12:21.357Z,14.00
2023-04-15T01:13:29.815Z,14.30
2023-04-15T01:14:32.310Z,14.63
2023-04-15T01:15:36.375Z,16.10
2023-04-15T01:16:40.033Z,16.08
2023-04-15T01:17:42.945Z,16.67
2023-04-15T01:18:45.267Z,14.60
2023-04-15T01:19:47.987Z,15.38
2023-04-15T01:20:50.318Z,14.75
2023-04-15T01:21:52.913Z,15.10
2023-04-15T01:22:56.013Z,15.38
2023-04-15T01:23:59.252Z,14.85
2023-04-15T01:25:08.496Z,15.30
2023-04-15T01:26:13.860Z,14.73
2023-04-15T01:27:16.610Z,12.93
2023-04-15T01:28:19.297Z,13.63
2023-04-15T01:29:23.506Z,14.82
2023-04-15T01:30:27.267Z,15.50
2023-04-15T01:31:29.926Z,15.23
2023-04-15T01:32:33.238Z,15.15
2023-04-15T01:33:35.746Z,15.40
2023-04-15T01:34:38.008Z,14.95
2023-04-15T01:35:40.414Z,14.45
2023-04-15T01:36:43.001Z,14.35
2023-04-15T01:37:45.652Z,13.65
2023-04-15T01:38:48.448Z,13.40
2023-04-15T01:39:51.770Z,13.98
2023-04-15T01:40:54.268Z,13.25
2023-04-15T01:41:57.597Z,13.85
2023-04-15T01:43:00.449Z,13.20
2023-04-15T01:44:02.838Z,12.82
2023-04-15T01:45:06.517Z,12.48
2023-04-15T01:46:08.882Z,12.40
2023-04-15T01:47:15.408Z,11.85
2023-04-15T01:48:18.172Z,11.88
2023-04-15T01:49:20.515Z,12.88
2023-04-15T01:50:22.932Z,12.98
2023-04-15T01:51:25.361Z,13.48
2023-04-15T01:52:27.752Z,14.77
2023-04-15T01:53:30.267Z,15.70
2023-04-15T01:54:32.565Z,15.02
2023-04-15T01:55:34.848Z,15.70
2023-04-15T01:56:45.759Z,12.90
2023-04-15T01:57:48.162Z,13.93
2023-04-15T01:58:50.629Z,14.35
2023-04-15T01:59:53.064Z,14.50
2023-04-15T02:00:57.337Z,14.15
2023-04-15T02:02:00.231Z,14.20
2023-04-15T02:03:03.183Z,14.25
2023-04-15T02:04:05.903Z,13.80
2023-04-15T02:05:08.842Z,15.57
2023-04-15T02:06:12.691Z,14.27
2023-04-15T02:07:15.140Z,14.77
2023-04-15T02:08:17.646Z,15.25
2023-04-15T02:09:20.217Z,14.60
2023-04-15T02:10:23.501Z,14.38
2023-04-15T02:11:25.871Z,15.80
2023-04-15T02:12:28.775Z,15.65
2023-04-15T02:13:31.171Z,15.00
2023-04-15T02:14:33.444Z,14.40
2023-04-15T02:15:35.751Z,14.77
2023-04-15T02:16:38.282Z,16.13
2023-04-15T02:17:40.938Z,15.88
2023-04-15T02:18:45.107Z,16.15
2023-04-15T02:19:48.340Z,18.13
2023-04-15T02:20:56.306Z,17.50
2023-04-15T02:21:58.758Z,17.27
2023-04-15T02:23:01.276Z,19.30
2023-04-15T02:24:04.505Z,18.17
2023-04-15T02:25:07.668Z,19.88
2023-04-15T02:26:10.209Z,20.50
2023-04-15T02:27:16.629Z,20.98
2023-04-15T02:28:19.314Z,19.70
2023-04-15T02:29:23.150Z,16.92
2023-04-15T02:30:26.148Z,18.95
2023-04-15T02:31:28.766Z,18.80
2023-04-15T02:32:31.448Z,19.67
2023-04-15T02:33:34.119Z,16.25
2023-04-15T02:34:37.889Z,15.93
2023-04-15T02:35:44.354Z,15.82
2023-04-15T02:36:48.875Z,16.45
2023-04-15T02:37:52.024Z,16.58
2023-04-15T02:38:54.408Z,16.33
2023-04-15T02:39:56.780Z,16.02
2023-04-15T02:40:59.293Z,15.07
2023-04-15T02:42:01.987Z,15.32
2023-04-15T02:43:05.581Z,15.65
2023-04-15T02:44:11.436Z,19.90
2023-04-15T02:45:14.949Z,18.15
2023-04-15T02:46:18.316Z,19.50
2023-04-15T02:47:21.052Z,18.02
2023-04-15T02:48:26.290Z,15.98
2023-04-15T02:49:31.107Z,16.17
2023-04-15T02:50:33.674Z,14.98
2023-04-15T02:51:39.060Z,16.08
2023-04-15T02:52:43.659Z,13.00
2023-04-15T02:53:49.715Z,14.30
2023-04-15T02:55:02.753Z,14.65
2023-04-15T02:56:06.399Z,13.15
2023-04-15T02:57:09.118Z,14.10
2023-04-15T02:58:11.493Z,13.60
2023-04-15T02:59:14.411Z,13.43
2023-04-15T03:00:17.216Z,15.38
2023-04-15T03:01:22.351Z,14.95
2023-04-15T03:02:33.781Z,13.80
2023-04-15T03:03:36.421Z,13.45
2023-04-15T03:04:46.757Z,12.82
2023-04-15T03:05:49.619Z,12.50
2023-04-15T03:06:53.035Z,13.57
2023-04-15T03:07:55.660Z,13.43
2023-04-15T03:09:00.600Z,12.38
2023-04-15T03:10:03.732Z,12.52
2023-04-15T03:11:07.858Z,12.57
2023-04-15T03:12:11.839Z,12.23
2023-04-15T03:13:14.368Z,11.82
2023-04-15T03:14:16.984Z,12.60
2023-04-15T03:15:22.618Z,13.20
2023-04-15T03:16:27.825Z,12.07
2023-04-15T03:17:31.141Z,13.15
2023-04-15T03:18:33.796Z,12.93
2023-04-15T03:19:38.713Z,12.48
2023-04-15T03:20:41.441Z,13.65
2023-04-15T03:21:44.278Z,13.27
2023-04-15T03:22:46.651Z,13.10
2023-04-15T03:23:51.430Z,12.70
2023-04-15T03:24:53.700Z,13.65
2023-04-15T03:25:57.982Z,14.40
2023-04-15T03:27:02.177Z,13.27
2023-04-15T03:28:04.989Z,13.23
2023-04-15T03:29:08.487Z,14.00
2023-04-15T03:30:11.420Z,11.85
2023-04-15T03:31:14.578Z,13.38
2023-04-15T03:32:16.924Z,12.80
2023-04-15T03:33:19.361Z,13.93
2023-04-15T03:34:21.777Z,14.20
2023-04-15T03:35:24.296Z,11.88
2023-04-15T03:36:27.471Z,13.70
2023-04-15T03:37:29.911Z,13.73
2023-04-15T03:38:32.227Z,13.45
2023-04-15T03:39:35.512Z,12.93
2023-04-15T03:40:39.356Z,14.00
2023-04-15T03:41:43.228Z,13.50
2023-04-15T03:42:48.059Z,13.15
2023-04-15T03:44:01.711Z,14.05
2023-04-15T03:45:06.121Z,13.35
2023-04-15T03:46:08.408Z,13.27
2023-04-15T03:47:11.187Z,13.10
2023-04-15T03:48:17.910Z,12.07
2023-04-15T03:49:20.933Z,12.00
2023-04-15T03:50:24.185Z,12.07
2023-04-15T03:51:26.679Z,10.32
2023-04-15T03:52:29.060Z,12.57
2023-04-15T03:53:31.454Z,11.98
2023-04-15T03:54:33.768Z,13.35
2023-04-15T03:55:35.918Z,12.00
2023-04-15T03:56:38.178Z,11.60
2023-04-15T03:57:40.624Z,11.45
2023-04-15T03:58:43.072Z,11.50
2023-04-15T03:59:45.485Z,10.50
2023-04-15T04:00:48.390Z,10.13
2023-04-15T04:01:51.175Z,10.43
2023-04-15T04:02:53.821Z,10.93
2023-04-15T04:03:56.697Z,10.90
2023-04-15T04:04:59.015Z,10.43
2023-04-15T04:06:01.328Z,11.13
2023-04-15T04:07:03.591Z,11.85
2023-04-15T04:08:06.628Z,10.98
2023-04-15T04:09:08.989Z,11.38
2023-04-15T04:10:13.475Z,11.43
2023-04-15T04:11:16.430Z,11.63
2023-04-15T04:12:18.751Z,13.00
2023-04-15T04:13:21.215Z,11.93
2023-04-15T04:14:29.503Z,12.18
2023-04-15T04:15:31.932Z,10.77
2023-04-15T04:16:34.275Z,11.73
2023-04-15T04:17:37.107Z,12.45
2023-04-15T04:18:39.516Z,11.07
2023-04-15T04:19:41.873Z,11.77
2023-04-15T04:20:44.363Z,11.73
2023-04-15T04:21:46.688Z,11.35
2023-04-15T04:22:49.074Z,11.20
2023-04-15T04:23:51.540Z,10.95
2023-04-15T04:24:53.911Z,12.32
2023-04-15T04:25:56.549Z,12.38
2023-04-15T04:26:59.220Z,13.18
2023-04-15T04:28:01.655Z,11.93
2023-04-15T04:29:04.330Z,12.15
2023-04-15T04:30:07.466Z,11.40
2023-04-15T04:31:09.998Z,11.88
2023-04-15T04:32:12.434Z,12.38
2023-04-15T04:33:14.705Z,12.02
2023-04-15T04:34:17.115Z,12.75
2023-04-15T04:35:19.485Z,12.20
2023-04-15T04:36:22.044Z,10.55
2023-04-15T04:37:24.902Z,11.93
2023-04-15T04:38:27.270Z,11.90
2023-04-15T04:39:29.711Z,11.05
2023-04-15T04:40:32.361Z,12.02
2023-04-15T04:41:34.995Z,11.18
2023-04-15T04:42:39.350Z,11.38
2023-04-15T04:43:42.558Z,11.40
2023-04-15T04:44:45.001Z,10.68
2023-04-15T04:45:47.607Z,10.30
2023-04-15T04:46:50.040Z,11.48
2023-04-15T04:47:52.495Z,10.73
2023-04-15T04:48:54.924Z,10.80
2023-04-15T04:49:57.235Z,10.27
2023-04-15T04:50:59.729Z,11.40
2023-04-15T04:52:02.813Z,10.65
2023-04-15T04:53:05.154Z,11.50
2023-04-15T04:54:07.790Z,10.93
2023-04-15T04:55:10.271Z,11.23
2023-04-15T04:56:12.688Z,10.85
2023-04-15T04:57:15.211Z,11.55
2023-04-15T04:58:17.786Z,10.50
2023-04-15T04:59:20.109Z,11.23
2023-04-15T05:00:23.043Z,10.32
2023-04-15T05:01:26.874Z,10.73
2023-04-15T05:02:29.534Z,10.25
2023-04-15T05:03:32.098Z,11.13
2023-04-15T05:04:34.863Z,10.55
2023-04-15T05:05:39.644Z,11.68
2023-04-15T05:06:42.004Z,11.80
2023-04-15T05:07:44.452Z,11.65
2023-04-15T05:08:47.359Z,11.43
2023-04-15T05:09:49.836Z,11.48
2023-04-15T05:10:52.203Z,10.95
2023-04-15T05:11:54.743Z,10.98
2023-04-15T05:12:57.328Z,43.30
2023-04-15T05:14:02.822Z,52.78
2023-04-15T05:15:07.059Z,42.95
2023-04-15T05:16:09.687Z,40.50
2023-04-15T05:17:12.715Z,39.03
2023-04-15T05:18:15.210Z,37.38
2023-04-15T05:19:17.526Z,35.00
2023-04-15T05:20:20.090Z,36.63
2023-04-15T05:21:22.711Z,34.55
2023-04-15T05:22:25.790Z,38.72
2023-04-15T05:23:28.240Z,36.53
2023-04-15T05:24:30.657Z,35.90
2023-04-15T05:25:32.926Z,30.10
2023-04-15T05:26:35.441Z,28.27
2023-04-15T05:27:38.086Z,20.55
2023-04-15T05:28:40.860Z,18.27
2023-04-15T05:29:43.126Z,16.98
2023-04-15T05:30:45.843Z,16.00
2023-04-15T05:31:48.622Z,15.40
2023-04-15T05:32:51.525Z,15.95
2023-04-15T05:33:54.023Z,14.23
2023-04-15T05:34:56.472Z,14.20
2023-04-15T05:35:58.800Z,12.85
2023-04-15T05:37:01.548Z,13.07
2023-04-15T05:38:03.906Z,13.73
2023-04-15T05:39:06.371Z,13.68
2023-04-15T05:40:10.755Z,14.43
2023-04-15T05:41:13.126Z,13.88
2023-04-15T05:42:16.139Z,13.20
2023-04-15T05:43:18.523Z,13.30
2023-04-15T05:44:20.971Z,12.43
2023-04-15T05:45:23.308Z,12.68
2023-04-15T05:46:25.758Z,11.88
2023-04-15T05:47:28.326Z,11.75
2023-04-15T05:48:30.839Z,11.38
2023-04-15T05:49:33.340Z,12.52
2023-04-15T05:50:36.163Z,13.35
2023-04-15T05:51:38.715Z,11.05
2023-04-15T05:52:41.187Z,12.55
2023-04-15T05:53:48.380Z,11.70
2023-04-15T05:54:50.967Z,9.60
2023-04-15T05:55:53.305Z,10.30
2023-04-15T05:56:59.226Z,10.70
2023-04-15T05:58:01.621Z,10.68
2023-04-15T05:59:11.538Z,11.32
2023-04-15T06:00:16.635Z,11.25
2023-04-15T06:01:19.020Z,9.77
2023-04-15T06:02:22.382Z,10.40
2023-04-15T06:03:25.047Z,11.43
2023-04-15T06:04:27.999Z,11.63
2023-04-15T06:05:30.450Z,12.23
2023-04-15T06:06:33.623Z,13.02
2023-04-15T06:07:37.044Z,14.90
2023-04-15T06:08:39.501Z,15.43
2023-04-15T06:09:41.962Z,14.73
2023-04-15T06:10:44.477Z,12.88
2023-04-15T06:11:47.066Z,14.23
2023-04-15T06:12:49.729Z,19.33
2023-04-15T06:13:52.060Z,19.38
2023-04-15T06:14:54.582Z,16.52
2023-04-15T06:15:57.075Z,15.90
2023-04-15T06:16:59.839Z,13.98
2023-04-15T06:18:02.473Z,15.20
2023-04-15T06:19:04.953Z,14.02
2023-04-15T06:20:08.685Z,12.55
2023-04-15T06:21:11.153Z,12.90
2023-04-15T06:22:13.599Z,11.52
2023-04-15T06:23:16.178Z,12.60
2023-04-15T06:24:18.531Z,12.13
2023-04-15T06:25:20.959Z,10.93
2023-04-15T06:26:23.693Z,11.13
2023-04-15T06:27:26.136Z,11.05
2023-04-15T06:28:28.590Z,9.57
2023-04-15T06:29:31.440Z,9.90
2023-04-15T06:30:33.949Z,8.55
2023-04-15T06:31:36.859Z,8.52
2023-04-15T06:32:39.324Z,8.85
2023-04-15T06:33:41.712Z,8.02
2023-04-15T06:34:44.117Z,9.13
2023-04-15T06:35:46.568Z,9.05
2023-04-15T06:36:49.409Z,9.18
2023-04-15T06:37:51.959Z,9.13
2023-04-15T06:38:54.397Z,8.52
2023-04-15T06:39:56.706Z,8.95
2023-04-15T06:40:59.197Z,7.55
2023-04-15T06:42:01.906Z,8.55
2023-04-15T06:43:05.108Z,8.80
2023-04-15T06:44:07.569Z,9.00
2023-04-15T06:45:10.644Z,8.50
2023-04-15T06:46:13.120Z,8.68
2023-04-15T06:47:18.502Z,7.72
2023-04-15T06:48:20.952Z,7.85
2023-04-15T06:49:23.450Z,8.30
2023-04-15T06:50:27.640Z,7.72
2023-04-15T06:51:36.233Z,8.77
2023-04-15T06:52:38.596Z,8.63
2023-04-15T06:53:46.481Z,8.15
2023-04-15T06:54:48.742Z,8.63
2023-04-15T06:55:54.528Z,8.13
2023-04-15T06:56:57.280Z,8.45
2023-04-15T06:57:59.738Z,8.35
2023-04-15T06:59:02.605Z,8.95
2023-04-15T07:00:06.003Z,9.10
2023-04-15T07:01:08.614Z,8.93
2023-04-15T07:02:14.759Z,8.73
2023-04-15T07:03:17.937Z,9.40
2023-04-15T07:04:21.145Z,8.27
2023-04-15T07:05:25.618Z,8.38
2023-04-15T07:06:28.159Z,9.13
2023-04-15T07:07:30.783Z,9.95
2023-04-15T07:08:33.971Z,9.07
2023-04-15T07:09:36.571Z,8.93
2023-04-15T07:10:38.996Z,9.05
2023-04-15T07:11:41.469Z,7.75
2023-04-15T07:12:44.231Z,13.88
2023-04-15T07:13:46.818Z,14.00
2023-04-15T07:14:49.703Z,9.13
2023-04-15T07:15:52.117Z,9.27
2023-04-15T07:16:54.752Z,8.43
2023-04-15T07:17:57.266Z,10.10
2023-04-15T07:19:00.375Z,9.40
2023-04-15T07:20:05.186Z,7.28
2023-04-15T07:21:07.830Z,6.65
2023-04-15T07:22:10.270Z,7.57
2023-04-15T07:23:12.945Z,7.15
2023-04-15T07:24:19.893Z,8.07
2023-04-15T07:25:23.026Z,9.35
2023-04-15T07:26:25.421Z,9.65
2023-04-15T07:27:28.154Z,9.63
2023-04-15T07:28:30.902Z,11.48
2023-04-15T07:29:33.284Z,11.10
2023-04-15T07:30:35.921Z,10.68
2023-04-15T07:31:38.554Z,5.80
2023-04-15T07:32:41.355Z,5.82
2023-04-15T07:33:44.098Z,6.72
2023-04-15T07:34:47.179Z,6.22
2023-04-15T07:35:50.258Z,7.35
2023-04-15T07:36:52.943Z,7.68
2023-04-15T07:37:55.725Z,8.25
2023-04-15T07:38:58.423Z,8.15
2023-04-15T07:40:01.266Z,9.27
2023-04-15T07:41:03.790Z,8.27
2023-04-15T07:42:06.279Z,7.88
2023-04-15T07:43:09.133Z,8.00
2023-04-15T07:44:37.330Z,7.50
2023-04-15T07:46:00.299Z,7.00
2023-04-15T07:47:23.842Z,7.32
2023-04-15T07:48:41.256Z,6.65
2023-04-15T07:49:45.522Z,6.10
2023-04-15T07:52:24.714Z,5.10
2023-04-15T07:53:41.195Z,5.38
2023-04-15T07:54:49.774Z,4.93
2023-04-15T07:55:58.258Z,6.25
2023-04-15T07:57:07.339Z,5.15
2023-04-15T07:58:16.716Z,5.60
2023-04-15T07:59:25.099Z,5.50
2023-04-15T08:00:38.474Z,5.82
2023-04-15T08:01:45.978Z,5.25
2023-04-15T08:03:00.854Z,5.18
2023-04-15T08:04:19.871Z,5.00
2023-04-15T08:06:12.611Z,4.75
2023-04-15T08:07:16.503Z,5.13
2023-04-15T08:10:01.336Z,5.13
2023-04-15T08:11:07.457Z,5.05
2023-04-15T08:12:15.742Z,4.75
2023-04-15T08:15:06.561Z,4.82
2023-04-15T08:16:37.384Z,3.97
2023-04-15T08:18:00.424Z,4.47
2023-04-15T08:19:04.189Z,4.35
2023-04-15T08:20:11.397Z,4.63
2023-04-15T08:21:20.119Z,5.30
2023-04-15T08:22:24.296Z,4.43
2023-04-15T08:23:26.694Z,4.38
2023-04-15T08:24:32.593Z,4.65
2023-04-15T08:25:42.215Z,4.50
2023-04-15T08:26:50.910Z,4.45
2023-04-15T08:29:24.676Z,4.45
2023-04-15T08:31:01.578Z,4.40
2023-04-15T08:32:20.815Z,4.28
2023-04-15T08:33:36.598Z,4.75
2023-04-15T08:34:45.041Z,4.13
2023-04-15T08:35:47.386Z,3.60
2023-04-15T08:36:50.589Z,3.08
2023-04-15T08:38:50.356Z,3.22
2023-04-15T08:39:52.930Z,3.22
2023-04-15T08:41:36.047Z,2.60
2023-04-15T08:43:13.350Z,2.85
2023-04-15T08:44:15.915Z,2.20
2023-04-15T08:45:18.537Z,2.83
2023-04-15T08:46:46.591Z,2.17
2023-04-15T08:47:58.257Z,2.58
2023-04-15T08:49:01.320Z,2.42
2023-04-15T08:50:24.474Z,2.58
2023-04-15T08:51:27.857Z,2.78
2023-04-15T08:52:40.689Z,2.58
2023-04-15T08:53:51.117Z,2.75
2023-04-15T08:55:02.634Z,2.90
2023-04-15T08:56:13.829Z,3.10
2023-04-15T08:57:16.702Z,3.03
2023-04-15T08:58:34.974Z,2.95
2023-04-15T08:59:40.491Z,3.25
2023-04-15T09:00:53.836Z,3.00
2023-04-15T09:02:05.670Z,2.88
2023-04-15T09:03:09.476Z,3.03
2023-04-15T09:04:12.855Z,2.97
2023-04-15T09:05:16.815Z,3.03
2023-04-15T09:07:40.181Z,2.78
2023-04-15T09:08:55.942Z,2.92
2023-04-15T09:09:58.781Z,3.30
2023-04-15T09:11:02.761Z,3.00
2023-04-15T09:13:10.863Z,2.72
2023-04-15T09:14:17.324Z,3.35
2023-04-15T09:15:31.728Z,3.20
2023-04-15T09:17:03.448Z,3.38
2023-04-15T09:18:06.752Z,3.85
2023-04-15T09:19:23.952Z,3.30
2023-04-15T09:20:26.597Z,2.78
2023-04-15T09:21:29.724Z,3.55
2023-04-15T09:22:35.211Z,3.85
2023-04-15T09:23:42.316Z,3.90
2023-04-15T09:24:44.807Z,3.55
2023-04-15T09:25:47.257Z,3.40
2023-04-15T09:26:53.404Z,3.17
2023-04-15T09:28:01.764Z,4.13
2023-04-15T09:29:08.401Z,3.78
2023-04-15T09:30:12.229Z,3.75
2023-04-15T09:31:15.720Z,3.03
2023-04-15T09:32:18.121Z,4.00
2023-04-15T09:33:20.513Z,3.42
2023-04-15T09:34:36.049Z,3.40
2023-04-15T09:35:38.545Z,3.67
2023-04-15T09:37:01.113Z,3.40
2023-04-15T09:38:09.956Z,3.17
2023-04-15T09:39:12.513Z,3.17
2023-04-15T09:40:15.561Z,3.33
2023-04-15T09:41:21.000Z,3.38
2023-04-15T09:42:27.925Z,3.38
2023-04-15T09:43:40.691Z,3.30
2023-04-15T09:44:43.782Z,3.40
2023-04-15T09:45:55.699Z,3.53
2023-04-15T09:46:59.129Z,3.80
2023-04-15T09:48:25.640Z,3.50
2023-04-15T09:49:28.809Z,3.42
2023-04-15T09:50:31.472Z,4.57
2023-04-15T09:51:35.908Z,3.67
2023-04-15T09:52:43.602Z,4.07
2023-04-15T09:53:47.373Z,4.15
2023-04-15T09:54:54.177Z,3.50
2023-04-15T09:56:03.435Z,3.00
2023-04-15T09:57:10.199Z,3.30
2023-04-15T09:58:23.593Z,3.45
2023-04-15T09:59:26.448Z,3.72
2023-04-15T10:00:30.013Z,3.35
2023-04-15T10:01:32.693Z,3.40
2023-04-15T10:02:37.187Z,3.20
2023-04-15T10:03:42.579Z,3.75
2023-04-15T10:04:45.865Z,2.95
2023-04-15T10:05:51.370Z,2.85
2023-04-15T10:06:53.765Z,2.67
2023-04-15T10:07:57.196Z,3.08
2023-04-15T10:09:00.161Z,3.20
2023-04-15T10:10:04.058Z,3.22
2023-04-15T10:11:07.021Z,2.80
2023-04-15T10:12:09.502Z,2.80
2023-04-15T10:13:14.441Z,2.90
2023-04-15T10:14:17.772Z,2.80
2023-04-15T10:15:21.050Z,3.47
2023-04-15T10:16:27.895Z,3.03
2023-04-15T10:17:33.849Z,3.40
2023-04-15T10:18:39.082Z,3.10
2023-04-15T10:19:42.007Z,4.00
2023-04-15T10:20:45.262Z,3.88
2023-04-15T10:21:47.731Z,3.63
2023-04-15T10:22:50.148Z,3.53
2023-04-15T10:23:52.996Z,3.75
2023-04-15T10:24:57.360Z,3.25
2023-04-15T10:26:00.224Z,3.63
2023-04-15T10:27:05.601Z,3.38
2023-04-15T10:28:09.301Z,3.83
2023-04-15T10:29:11.836Z,4.00
2023-04-15T10:30:14.449Z,4.18
2023-04-15T10:31:17.445Z,3.50
2023-04-15T10:32:21.433Z,3.38
2023-04-15T10:33:25.267Z,3.67
2023-04-15T10:34:28.035Z,4.75
2023-04-15T10:35:33.266Z,3.92
2023-04-15T10:36:35.843Z,3.60
2023-04-15T10:37:39.265Z,3.53
2023-04-15T10:40:25.578Z,3.45
2023-04-15T10:41:33.604Z,3.63
2023-04-15T10:42:39.060Z,3.05
2023-04-15T10:43:56.284Z,2.70
2023-04-15T10:44:58.604Z,3.22
2023-04-15T10:46:06.443Z,3.05
2023-04-15T10:47:14.300Z,3.40
2023-04-15T10:48:16.884Z,3.92
2023-04-15T10:49:27.228Z,3.30
2023-04-15T10:50:32.809Z,3.03
2023-04-15T10:51:41.840Z,2.83
2023-04-15T10:52:47.197Z,3.53
2023-04-15T10:53:49.614Z,2.83
2023-04-15T10:55:12.655Z,3.75
2023-04-15T10:56:17.575Z,3.60
2023-04-15T10:57:24.874Z,3.55
2023-04-15T10:58:42.712Z,3.60
2023-04-15T10:59:59.842Z,3.40
2023-04-15T11:01:02.946Z,3.97
2023-04-15T11:02:07.162Z,3.97
2023-04-15T11:03:10.830Z,4.10
2023-04-15T11:04:13.540Z,4.18
2023-04-15T11:05:16.936Z,4.10
2023-04-15T11:06:19.340Z,4.32
2023-04-15T11:07:42.119Z,4.63
2023-04-15T11:08:59.534Z,3.72
2023-04-15T11:10:02.772Z,4.15
2023-04-15T11:11:05.420Z,4.80
2023-04-15T11:12:11.353Z,4.30
2023-04-15T11:13:20.603Z,4.10
2023-04-15T11:14:23.205Z,3.70
2023-04-15T11:15:25.557Z,3.65
2023-04-15T11:16:28.745Z,3.45
2023-04-15T11:17:31.545Z,3.35
2023-04-15T11:18:35.041Z,2.88
2023-04-15T11:19:41.560Z,3.22
2023-04-15T11:20:46.714Z,2.60
2023-04-15T11:21:49.041Z,2.60
2023-04-15T11:22:53.009Z,2.17
2023-04-15T11:24:27.894Z,2.20
2023-04-15T11:25:33.724Z,2.33
2023-04-15T11:26:36.250Z,2.75
2023-04-15T11:27:38.603Z,2.28
2023-04-15T11:28:45.338Z,2.40
2023-04-15T11:29:47.702Z,2.58
2023-04-15T11:30:50.075Z,3.33
2023-04-15T11:31:52.542Z,2.97
2023-04-15T11:32:58.780Z,3.28
2023-04-15T11:34:04.540Z,2.50
2023-04-15T11:35:07.447Z,2.80
2023-04-15T11:36:10.802Z,2.88
2023-04-15T11:37:13.908Z,3.90
2023-04-15T11:38:16.914Z,3.72
2023-04-15T11:39:23.032Z,3.70
2023-04-15T11:40:30.600Z,2.95
2023-04-15T11:41:32.880Z,2.33
2023-04-15T11:42:48.500Z,2.90
2023-04-15T11:43:52.432Z,2.58
2023-04-15T11:45:14.417Z,2.65
2023-04-15T11:46:17.034Z,2.83
2023-04-15T11:47:24.433Z,2.67
2023-04-15T11:48:40.856Z,2.42
2023-04-15T11:49:43.274Z,2.75
2023-04-15T11:50:46.288Z,2.50
2023-04-15T11:51:48.631Z,2.10
2023-04-15T11:52:58.359Z,2.42
2023-04-15T11:54:01.208Z,2.50
2023-04-15T11:55:04.566Z,2.67
2023-04-15T11:56:08.234Z,2.80
2023-04-15T11:57:10.709Z,3.22
2023-04-15T11:58:17.167Z,2.75
2023-04-15T11:59:19.814Z,2.72
2023-04-15T12:00:31.204Z,2.45
2023-04-15T12:01:40.017Z,2.67
2023-04-15T12:02:42.475Z,2.40
2023-04-15T12:03:49.875Z,2.63
2023-04-15T12:05:12.608Z,2.75
2023-04-15T12:06:25.234Z,2.70
2023-04-15T12:07:27.543Z,2.20
2023-04-15T12:08:49.316Z,2.33
2023-04-15T12:09:58.296Z,3.50
2023-04-15T12:11:00.616Z,2.58
2023-04-15T12:12:03.272Z,2.47
2023-04-15T12:13:07.781Z,2.80
2023-04-15T12:14:12.998Z,3.42
2023-04-15T12:15:15.825Z,3.83
2023-04-15T12:16:21.850Z,2.72
2023-04-15T12:17:52.183Z,3.35
2023-04-15T12:18:57.886Z,3.40
2023-04-15T12:20:00.662Z,3.60
2023-04-15T12:21:12.914Z,3.20
2023-04-15T12:22:16.768Z,2.58
2023-04-15T12:23:22.460Z,2.25
2023-04-15T12:24:29.488Z,2.28
2023-04-15T12:25:35.744Z,2.20
2023-04-15T12:26:44.377Z,2.33
2023-04-15T12:27:56.585Z,2.45
2023-04-15T12:29:20.038Z,2.30
2023-04-15T12:30:22.663Z,2.00
2023-04-15T12:31:25.746Z,2.58
2023-04-15T12:32:28.494Z,1.98
2023-04-15T12:33:34.290Z,1.90
2023-04-15T12:34:44.914Z,2.13
2023-04-15T12:35:47.517Z,2.10
2023-04-15T12:36:50.101Z,2.08
2023-04-15T12:37:52.933Z,2.00
2023-04-15T12:38:55.453Z,2.30
2023-04-15T12:39:57.978Z,2.60
2023-04-15T12:41:00.550Z,2.50
2023-04-15T12:42:05.531Z,2.17
2023-04-15T12:43:07.911Z,2.28
2023-04-15T12:44:10.423Z,2.20
2023-04-15T12:45:12.862Z,3.25
2023-04-15T12:46:15.952Z,2.92
2023-04-15T12:47:18.356Z,2.33
2023-04-15T12:48:20.892Z,2.78
2023-04-15T12:49:24.589Z,2.50
2023-04-15T12:50:26.861Z,2.28
2023-04-15T12:51:29.070Z,2.17
2023-04-15T12:52:32.336Z,2.22
2023-04-15T12:53:34.706Z,2.75
2023-04-15T12:54:37.425Z,2.80
2023-04-15T12:55:39.746Z,2.90
2023-04-15T12:56:42.002Z,2.65
2023-04-15T12:57:44.351Z,3.25
2023-04-15T12:58:46.703Z,4.00
2023-04-15T12:59:49.045Z,3.92
2023-04-15T13:00:52.023Z,4.80
2023-04-15T13:01:54.893Z,2.75
2023-04-15T13:02:57.725Z,2.55
2023-04-15T13:04:00.341Z,2.15
2023-04-15T13:05:03.314Z,2.08
2023-04-15T13:06:06.323Z,1.95
2023-04-15T13:07:09.332Z,2.30
2023-04-15T13:08:12.015Z,2.30
2023-04-15T13:09:14.540Z,2.15
2023-04-15T13:10:17.144Z,2.10
2023-04-15T13:11:20.320Z,2.30
2023-04-15T13:12:23.370Z,2.42
2023-04-15T13:13:25.843Z,2.60
2023-04-15T13:14:28.787Z,2.55
2023-04-15T13:15:31.165Z,2.60
2023-04-15T13:16:34.137Z,3.30
2023-04-15T13:17:36.857Z,6.53
2023-04-15T13:18:39.301Z,6.88
2023-04-15T13:19:41.891Z,4.82
2023-04-15T13:20:50.115Z,4.18
2023-04-15T13:21:52.964Z,4.10
2023-04-15T13:22:55.409Z,4.32
2023-04-15T13:23:58.231Z,3.10
2023-04-15T13:25:00.684Z,2.75
2023-04-15T13:26:02.948Z,2.08
2023-04-15T13:27:06.020Z,2.63
2023-04-15T13:28:08.550Z,1.98
2023-04-15T13:29:12.425Z,2.30
2023-04-15T13:31:17.338Z,2.35
2023-04-15T13:32:19.765Z,2.80
2023-04-15T13:33:22.359Z,2.58
2023-04-15T13:34:24.758Z,2.55
2023-04-15T13:35:27.368Z,2.83
2023-04-15T13:36:30.833Z,2.30
2023-04-15T13:37:33.209Z,2.45
2023-04-15T13:38:38.393Z,2.08
2023-04-15T13:39:41.380Z,2.25
2023-04-15T13:40:43.786Z,2.50
2023-04-15T13:41:46.435Z,2.30
2023-04-15T13:42:48.978Z,2.35
2023-04-15T13:43:54.519Z,2.63
2023-04-15T13:44:57.175Z,2.75
2023-04-15T13:45:59.500Z,3.10
2023-04-15T13:47:02.373Z,3.10
2023-04-15T13:48:04.981Z,3.30
2023-04-15T13:49:07.257Z,3.38
2023-04-15T13:50:10.108Z,3.03
2023-04-15T13:51:13.046Z,2.45
2023-04-15T13:52:15.692Z,2.40
2023-04-15T13:53:18.166Z,1.83
2023-04-15T13:54:20.791Z,1.70
2023-04-15T13:55:25.404Z,2.10
2023-04-15T13:56:29.740Z,1.88
2023-04-15T13:57:34.753Z,2.10
2023-04-15T13:58:38.210Z,1.80
2023-04-15T13:59:41.062Z,1.98
2023-04-15T14:00:43.579Z,2.53
2023-04-15T14:01:46.026Z,2.30
2023-04-15T14:02:48.836Z,2.50
2023-04-15T14:03:53.814Z,2.72
2023-04-15T14:04:56.453Z,2.20
2023-04-15T14:05:59.065Z,2.40
2023-04-15T14:07:06.289Z,2.10
2023-04-15T14:08:08.800Z,2.15
2023-04-15T14:09:14.152Z,2.40
2023-04-15T14:10:17.149Z,2.25
2023-04-15T14:11:19.677Z,2.15
2023-04-15T14:12:22.392Z,2.35
2023-04-15T14:13:25.430Z,3.20
2023-04-15T14:14:27.782Z,3.28
2023-04-15T14:15:36.234Z,2.78
2023-04-15T14:16:38.847Z,4.10
2023-04-15T14:17:42.876Z,4.43
2023-04-15T14:18:48.165Z,5.90
2023-04-15T14:19:51.130Z,7.10
2023-04-15T14:20:53.644Z,6.75